McGrath, AK

12:20 AM AKDT on August 20, 2014 (GMT -0800)
Nikolai AP, Nikolai, AK | Change Station
CLOSE
Current Station
Airport
Location: Nikolai AP, Nikolai, AK,
Elevation: 413 ft
Nearby Weather Stations

Elev 413 ft 63.02 °N, 154.36 °W | Updated 24 minutes ago

Overcast
Overcast
56 °F
Feels Like 56 °F
N
0
Wind Variable Wind from North

Today
High -- | Low -- °F
--% Chance of Precip.
Yesterday
High -- | Low -- °F
Precip. -- in
6:33 AM 10:10 PM
Waning Crescent, 23% visible
Pressure 30.06 in
Visibility 10.0 miles
Clouds Mostly Cloudy 7000 ft
Overcast 8500 ft
Dew Point 53 °F
Humidity 89%
Rainfall 0.01 in
Snow Depth Not available.
UV 0 out of 12
Pollen Not available.
Air Quality Not available.
Flu Activity Not available.
METAR PAFS 200756Z AUTO 00000KT 10SM BKN070 OVC085 13/12 A3004 RMK AO2 TSNO T01330116 BKN V SCT SLP178 $

More Conditions Fewer Conditions

Pressure 30.06 in
Visibility 10.0 miles
Clouds Mostly Cloudy 7000 ft
Overcast 8500 ft
Dew Point 53 °F
Humidity 89%
Rainfall 0.01 in
Snow Depth Not available.
UV 0 out of 12
Pollen Not available.
Air Quality Not available.
Flu Activity Not available.
METAR PAFS 200756Z AUTO 00000KT 10SM BKN070 OVC085 13/12 A3004 RMK AO2 TSNO T01330116 BKN V SCT SLP178 $

More Conditions Fewer Conditions

10-Day Weather Forecast

Almanac

Astronomy

Aug. 20, 2014 Rise Set
Actual Time 6:33 AM AKDT 10:10 PM AKDT
Civil Twilight 5:37 AM AKDT 11:06 PM AKDT
Nautical Twilight 4:08 AM AKDT 12:32 AM AKDT
Astronomical Twilight Sun does not rise Sun does not rise
Moon 1:42 AM AKDT 7:39 PM AKDT
Length of Visible Light 17h 29m
Length of Day
15h 37m
Tomorrow will be 6m 8s shorter.
Waning Crescent, 23% of the Moon is Illuminated
Today
Waning Crescent
Aug 25
New
Sep 2
First Quarter
Sep 8
Full
Sep 15
Last Quarter

Community

WunderPhotos

Upload Photos

1,745,601 photos uploaded!

Nearby

Snow Depth

Station Depth Elevation
Susitna Valley High 2 in 375 ft
Point Mackenzie 1 in 200 ft
Indian Pass 1 in 2300 ft
Summit Creek 0 in 1400 ft
Turnagain Pass 2 in 1880 ft

Earthquake Activity

City Distance Mag. Time & Date
No recent earthquake activity has been reported nearby.
Minimum magnitude displayed is 2.5.

Coastal Water Temperatures

Place Temperature
No Stations Reporting

Nearby Weather Stations